createdAt,value
2019-02-05T00:03:20.819Z,3.51
2019-02-05T00:07:24.286Z,3.54
2019-02-05T00:11:27.749Z,3.46
2019-02-05T00:15:31.208Z,3.47
2019-02-05T00:19:34.669Z,3.47
2019-02-05T00:23:38.120Z,3.52
2019-02-05T00:27:41.574Z,3.55
2019-02-05T00:31:45.026Z,3.59
2019-02-05T00:35:48.491Z,3.65
2019-02-05T00:39:51.938Z,3.63
2019-02-05T00:43:55.410Z,3.66
2019-02-05T00:47:58.871Z,3.70
2019-02-05T00:52:02.332Z,3.74
2019-02-05T00:56:17.142Z,3.74
2019-02-05T01:00:11.245Z,3.69
2019-02-05T01:04:14.704Z,3.68
2019-02-05T01:08:18.168Z,3.68
2019-02-05T01:12:21.625Z,3.71
2019-02-05T01:16:25.083Z,3.74
2019-02-05T01:20:28.532Z,3.75
2019-02-05T01:24:32.016Z,3.72
2019-02-05T01:28:35.474Z,3.71
2019-02-05T01:32:38.936Z,3.70
2019-02-05T01:36:42.395Z,3.64
2019-02-05T01:40:45.843Z,3.56
2019-02-05T01:44:49.299Z,3.51
2019-02-05T01:48:53.131Z,3.41
2019-02-05T01:52:56.587Z,3.30
2019-02-05T01:57:00.041Z,3.16
2019-02-05T02:01:03.492Z,3.00
2019-02-05T02:05:06.955Z,2.89
2019-02-05T02:09:10.416Z,2.75
2019-02-05T02:13:13.871Z,2.72
2019-02-05T02:17:17.382Z,2.76
2019-02-05T02:21:20.785Z,2.91
2019-02-05T02:25:24.242Z,3.00
2019-02-05T02:29:27.702Z,3.10
2019-02-05T02:33:31.157Z,3.02
2019-02-05T02:37:34.600Z,3.10
2019-02-05T02:41:38.066Z,3.23
2019-02-05T02:45:41.519Z,3.21
2019-02-05T02:49:45.257Z,3.21
2019-02-05T02:53:48.719Z,3.22
2019-02-05T02:57:52.343Z,3.27
2019-02-05T03:01:55.803Z,3.30
2019-02-05T03:05:59.265Z,3.39
2019-02-05T03:10:02.740Z,3.40
2019-02-05T03:14:06.249Z,3.44
2019-02-05T03:18:09.702Z,3.42
2019-02-05T03:22:13.180Z,3.43
2019-02-05T03:26:16.643Z,3.43
2019-02-05T03:30:20.181Z,3.48
2019-02-05T03:34:23.626Z,3.54
2019-02-05T03:38:27.155Z,3.56
2019-02-05T03:42:30.617Z,3.57
2019-02-05T03:46:34.075Z,3.64
2019-02-05T03:50:37.537Z,3.68
2019-02-05T03:54:41.057Z,3.72
2019-02-05T03:58:44.511Z,3.77
2019-02-05T04:02:47.968Z,3.76
2019-02-05T04:06:51.433Z,3.76
2019-02-05T04:10:54.887Z,3.77
2019-02-05T04:14:58.341Z,3.78
2019-02-05T04:19:01.795Z,3.78
2019-02-05T04:23:05.262Z,3.77
2019-02-05T04:27:08.715Z,3.79
2019-02-05T04:31:12.177Z,3.82
2019-02-05T04:35:15.628Z,3.88
2019-02-05T04:39:19.085Z,3.92
2019-02-05T04:43:22.546Z,3.90
2019-02-05T04:47:26.977Z,3.90
2019-02-05T04:51:30.434Z,3.90
2019-02-05T04:55:34.163Z,3.89
2019-02-05T04:59:37.612Z,3.90
2019-02-05T05:03:41.072Z,3.86
2019-02-05T05:07:44.533Z,3.91
2019-02-05T05:11:47.992Z,3.92
2019-02-05T05:15:51.440Z,3.90
2019-02-05T05:19:54.895Z,3.90
2019-02-05T05:23:58.358Z,3.91
2019-02-05T05:28:09.664Z,3.95
2019-02-05T05:32:06.957Z,3.98
2019-02-05T05:36:10.442Z,3.99
2019-02-05T05:40:13.909Z,3.99
2019-02-05T05:44:17.376Z,3.99
2019-02-05T05:48:20.854Z,4.00
2019-02-05T05:52:24.291Z,4.04
2019-02-05T05:56:27.765Z,4.06
2019-02-05T06:00:31.226Z,4.06
2019-02-05T06:04:35.655Z,4.10
2019-02-05T06:08:39.125Z,4.07
2019-02-05T06:12:42.571Z,3.99
2019-02-05T06:16:46.028Z,4.04
2019-02-05T06:20:49.486Z,4.07
2019-02-05T06:24:52.950Z,4.04
2019-02-05T06:28:56.399Z,4.08
2019-02-05T06:32:59.849Z,4.10
2019-02-05T06:37:03.314Z,4.03
2019-02-05T06:41:06.895Z,4.02
2019-02-05T06:45:10.681Z,4.07
2019-02-05T06:49:14.140Z,4.04
2019-02-05T06:53:17.966Z,3.98
2019-02-05T06:57:21.428Z,3.92
2019-02-05T07:01:25.160Z,4.04
2019-02-05T07:05:28.615Z,4.03
2019-02-05T07:09:32.140Z,4.00
2019-02-05T07:13:35.596Z,4.03
2019-02-05T07:17:49.396Z,4.04
2019-02-05T07:21:44.230Z,3.98
2019-02-05T07:25:47.697Z,3.93
2019-02-05T07:29:51.138Z,3.91
2019-02-05T07:33:54.600Z,3.96
2019-02-05T07:37:58.083Z,4.01
2019-02-05T07:42:01.521Z,4.07
2019-02-05T07:46:04.983Z,4.12
2019-02-05T07:50:08.438Z,4.12
2019-02-05T07:54:11.899Z,4.17
2019-02-05T07:58:15.379Z,4.26
2019-02-05T08:02:18.842Z,4.34
2019-02-05T08:06:22.302Z,4.55
2019-02-05T08:10:25.753Z,4.59
2019-02-05T08:14:30.196Z,4.57
2019-02-05T08:18:33.721Z,4.61
2019-02-05T08:22:37.575Z,4.69
2019-02-05T08:26:41.144Z,4.82
2019-02-05T08:30:44.948Z,4.95
2019-02-05T08:34:48.412Z,5.05
2019-02-05T08:38:52.255Z,5.16
2019-02-05T08:42:55.716Z,5.22
2019-02-05T08:46:59.443Z,5.25
2019-02-05T08:51:02.901Z,5.37
2019-02-05T08:55:06.643Z,5.38
2019-02-05T08:59:10.101Z,5.46
2019-02-05T09:03:13.637Z,5.47
2019-02-05T09:07:17.088Z,5.46
2019-02-05T09:11:20.869Z,5.56
2019-02-05T09:15:29.416Z,5.71
2019-02-05T09:19:30.558Z,5.80
2019-02-05T09:23:34.029Z,5.92
2019-02-05T09:27:37.478Z,6.01
2019-02-05T09:31:40.933Z,6.18
2019-02-05T09:35:44.419Z,6.33
2019-02-05T09:39:47.876Z,6.38
2019-02-05T09:43:51.339Z,6.43
2019-02-05T09:47:54.796Z,6.49
2019-02-05T09:51:58.261Z,6.54
2019-02-05T09:56:01.717Z,6.71
2019-02-05T10:00:05.172Z,6.84
2019-02-05T10:04:10.009Z,6.94
2019-02-05T10:08:13.475Z,7.06
2019-02-05T10:12:16.935Z,7.18
2019-02-05T10:16:20.390Z,7.21
2019-02-05T10:20:23.849Z,7.22
2019-02-05T10:24:27.317Z,7.44
2019-02-05T10:28:30.772Z,7.50
2019-02-05T10:32:34.233Z,7.56
2019-02-05T10:36:37.698Z,7.59
2019-02-05T10:40:41.158Z,7.69
2019-02-05T10:44:44.607Z,7.70
2019-02-05T10:48:48.160Z,7.76
2019-02-05T10:52:52.673Z,7.74
2019-02-05T10:56:56.139Z,7.75
2019-02-05T11:00:59.594Z,7.93
2019-02-05T11:05:03.056Z,7.87
2019-02-05T11:09:06.512Z,7.84
2019-02-05T11:13:09.973Z,7.79
2019-02-05T11:17:13.426Z,7.75
2019-02-05T11:21:16.897Z,7.81
2019-02-05T11:25:20.344Z,8.01
2019-02-05T11:29:23.800Z,8.08
2019-02-05T11:33:27.263Z,8.14
2019-02-05T11:37:30.726Z,8.08
2019-02-05T11:41:34.269Z,7.88
2019-02-05T11:45:37.654Z,7.76
2019-02-05T11:49:41.109Z,7.69
2019-02-05T11:53:44.573Z,7.77
2019-02-05T11:57:48.043Z,7.92
2019-02-05T12:01:52.564Z,7.99
2019-02-05T12:05:56.017Z,8.08
2019-02-05T12:09:59.474Z,8.21
2019-02-05T12:14:02.945Z,8.34
2019-02-05T12:18:06.404Z,8.31
2019-02-05T12:22:09.852Z,8.41
2019-02-05T12:26:13.303Z,8.43
2019-02-05T12:30:16.773Z,8.51
2019-02-05T12:34:20.234Z,8.45
2019-02-05T12:38:23.694Z,8.46
2019-02-05T12:42:27.148Z,8.57
2019-02-05T12:46:30.608Z,8.57
2019-02-05T12:50:34.073Z,8.56
2019-02-05T12:54:37.821Z,8.55
2019-02-05T12:58:41.277Z,8.53
2019-02-05T13:02:45.005Z,8.50
2019-02-05T13:06:48.468Z,8.47
2019-02-05T13:10:51.925Z,8.54
2019-02-05T13:14:55.398Z,8.49
2019-02-05T13:18:58.863Z,8.59
2019-02-05T13:23:02.316Z,8.54
2019-02-05T13:27:05.783Z,8.44
2019-02-05T13:31:09.255Z,8.42
2019-02-05T13:35:12.719Z,8.39
2019-02-05T13:39:16.180Z,8.33
2019-02-05T13:43:19.640Z,8.42
2019-02-05T13:47:24.740Z,8.50
2019-02-05T13:51:28.464Z,8.61
2019-02-05T13:55:32.184Z,8.66
2019-02-05T13:59:35.648Z,8.62
2019-02-05T14:03:39.096Z,8.60
2019-02-05T14:07:42.566Z,8.50
2019-02-05T14:11:46.023Z,8.45
2019-02-05T14:15:49.495Z,8.43
2019-02-05T14:19:52.961Z,8.31
2019-02-05T14:23:56.429Z,8.26
2019-02-05T14:27:59.900Z,8.23
2019-02-05T14:32:03.365Z,8.19
2019-02-05T14:36:06.816Z,8.15
2019-02-05T14:40:11.364Z,8.09
2019-02-05T14:44:14.816Z,7.91
2019-02-05T14:48:18.280Z,7.88
2019-02-05T14:52:21.792Z,7.91
2019-02-05T14:56:26.890Z,7.95
2019-02-05T15:00:30.351Z,8.01
2019-02-05T15:04:34.074Z,7.99
2019-02-05T15:08:37.528Z,7.95
2019-02-05T15:12:40.994Z,7.90
2019-02-05T15:16:44.457Z,7.90
2019-02-05T15:20:47.905Z,7.98
2019-02-05T15:24:51.369Z,7.88
2019-02-05T15:28:54.836Z,7.81
2019-02-05T15:33:16.330Z,7.79
2019-02-05T15:37:19.779Z,7.80
2019-02-05T15:41:23.245Z,7.72
2019-02-05T15:45:26.757Z,7.66
2019-02-05T15:49:30.220Z,7.49
2019-02-05T15:53:33.676Z,7.30
2019-02-05T15:57:37.139Z,7.18
2019-02-05T16:01:40.601Z,6.88
2019-02-05T16:05:44.046Z,6.62
2019-02-05T16:09:47.589Z,6.57
2019-02-05T16:13:51.053Z,6.49
2019-02-05T16:17:54.514Z,6.51
2019-02-05T16:21:57.978Z,6.54
2019-02-05T16:26:01.810Z,6.37
2019-02-05T16:30:05.275Z,6.17
2019-02-05T16:34:09.022Z,5.97
2019-02-05T16:38:12.508Z,5.97
2019-02-05T16:42:15.985Z,5.81
2019-02-05T16:46:19.445Z,5.69
2019-02-05T16:50:22.903Z,5.70
2019-02-05T16:54:26.371Z,5.79
2019-02-05T16:58:29.832Z,5.85
2019-02-05T17:02:33.316Z,5.84
2019-02-05T17:06:36.765Z,5.87
2019-02-05T17:10:40.223Z,5.84
2019-02-05T17:14:43.685Z,5.74
2019-02-05T17:18:47.216Z,5.68
2019-02-05T17:22:50.669Z,5.63
2019-02-05T17:26:54.129Z,5.45
2019-02-05T17:30:57.596Z,5.32
2019-02-05T17:35:01.544Z,5.26
2019-02-05T17:39:05.014Z,5.16
2019-02-05T17:43:08.463Z,5.09
2019-02-05T17:47:11.937Z,5.08
2019-02-05T17:51:15.395Z,5.03
2019-02-05T17:55:18.855Z,5.11
2019-02-05T17:59:22.325Z,5.24
2019-02-05T18:03:25.786Z,5.23
2019-02-05T18:07:29.237Z,5.22
2019-02-05T18:11:32.705Z,5.17
2019-02-05T18:15:36.167Z,5.09
2019-02-05T18:19:39.630Z,5.03
2019-02-05T18:23:43.088Z,5.01
2019-02-05T18:27:46.547Z,4.95
2019-02-05T18:31:50.009Z,4.94
2019-02-05T18:35:53.750Z,5.03
2019-02-05T18:39:57.236Z,5.10
2019-02-05T18:44:00.767Z,5.08
2019-02-05T18:48:04.258Z,5.04
2019-02-05T18:52:08.495Z,4.99
2019-02-05T18:56:12.059Z,4.98
2019-02-05T19:00:15.569Z,4.93
2019-02-05T19:04:19.023Z,4.84
2019-02-05T19:08:22.491Z,4.86
2019-02-05T19:12:25.960Z,5.02
2019-02-05T19:16:29.428Z,5.16
2019-02-05T19:20:32.895Z,5.22
2019-02-05T19:24:37.987Z,5.20
2019-02-05T19:28:41.449Z,5.12
2019-02-05T19:32:44.992Z,5.08
2019-02-05T19:36:48.455Z,5.09
2019-02-05T19:40:57.623Z,5.01
2019-02-05T19:44:58.996Z,4.94
2019-02-05T19:49:04.139Z,4.94
2019-02-05T19:53:07.561Z,4.92
2019-02-05T19:57:11.104Z,4.89
2019-02-05T20:01:14.952Z,4.80
2019-02-05T20:05:18.401Z,4.74
2019-02-05T20:09:22.140Z,4.68
2019-02-05T20:13:25.610Z,4.62
2019-02-05T20:17:29.349Z,4.56
2019-02-05T20:21:32.824Z,4.46
2019-02-05T20:25:36.561Z,4.29
2019-02-05T20:29:40.055Z,4.25
2019-02-05T20:33:49.884Z,4.23
2019-02-05T20:37:48.885Z,4.04
2019-02-05T20:41:52.795Z,3.96
2019-02-05T20:45:56.509Z,3.94
2019-02-05T20:50:00.798Z,3.90
2019-02-05T20:54:04.263Z,3.79
2019-02-05T20:58:07.724Z,3.80
2019-02-05T21:02:11.178Z,3.88
2019-02-05T21:06:14.641Z,3.81
2019-02-05T21:10:18.112Z,3.62
2019-02-05T21:14:21.583Z,3.59
2019-02-05T21:18:25.052Z,3.56
2019-02-05T21:22:28.502Z,3.54
2019-02-05T21:26:31.972Z,3.66
2019-02-05T21:30:35.442Z,3.77
2019-02-05T21:34:38.905Z,3.82
2019-02-05T21:38:45.347Z,3.96
2019-02-05T21:42:47.525Z,4.02
2019-02-05T21:46:50.985Z,4.06
2019-02-05T21:50:54.454Z,4.08
2019-02-05T21:54:57.925Z,4.01
2019-02-05T21:59:01.409Z,3.85
2019-02-05T22:03:04.853Z,3.69
2019-02-05T22:07:08.311Z,3.52
2019-02-05T22:11:11.767Z,3.35
2019-02-05T22:15:15.236Z,3.21
2019-02-05T22:19:21.017Z,3.06
2019-02-05T22:23:23.841Z,2.93
2019-02-05T22:27:27.306Z,2.83
2019-02-05T22:31:30.764Z,2.64
2019-02-05T22:35:34.237Z,2.48
2019-02-05T22:39:37.683Z,2.25
2019-02-05T22:43:41.152Z,2.16
2019-02-05T22:47:44.616Z,1.93
2019-02-05T22:51:48.352Z,1.94
2019-02-05T22:55:51.928Z,1.90
2019-02-05T22:59:55.677Z,1.78
2019-02-05T23:03:59.137Z,1.70
2019-02-05T23:08:02.602Z,1.68
2019-02-05T23:12:06.085Z,1.69
2019-02-05T23:16:09.528Z,1.62
2019-02-05T23:20:12.987Z,1.57
2019-02-05T23:24:16.458Z,1.57
2019-02-05T23:28:19.921Z,1.55
2019-02-05T23:32:23.390Z,1.55
2019-02-05T23:36:26.841Z,1.52
2019-02-05T23:40:30.583Z,1.56
2019-02-05T23:44:34.041Z,1.60
2019-02-05T23:48:37.501Z,1.60
2019-02-05T23:52:40.966Z,1.65
2019-02-05T23:56:44.413Z,1.58
